sensor_id;sensor_type;location;lat;lon;timestamp;pressure;altitude;pressure_sealevel;temperature;humidity
41947;BME280;27638;42.184;24.848;2023-02-16T00:02:01;101280.69;;;6.02;54.80
41947;BME280;27638;42.184;24.848;2023-02-16T00:04:29;101277.41;;;5.98;53.87
41947;BME280;27638;42.184;24.848;2023-02-16T00:06:55;101273.34;;;5.78;54.54
41947;BME280;27638;42.184;24.848;2023-02-16T00:09:22;101277.94;;;5.75;55.30
41947;BME280;27638;42.184;24.848;2023-02-16T00:11:49;101276.25;;;5.74;54.87
41947;BME280;27638;42.184;24.848;2023-02-16T00:14:36;101275.31;;;5.75;55.04
41947;BME280;27638;42.184;24.848;2023-02-16T00:17:02;101273.63;;;5.60;55.07
41947;BME280;27638;42.184;24.848;2023-02-16T00:19:30;101273.81;;;5.57;55.97
41947;BME280;27638;42.184;24.848;2023-02-16T00:21:58;101270.81;;;5.63;55.11
41947;BME280;27638;42.184;24.848;2023-02-16T00:24:26;101264.03;;;5.44;55.53
41947;BME280;27638;42.184;24.848;2023-02-16T00:26:52;101274.28;;;5.19;56.26
41947;BME280;27638;42.184;24.848;2023-02-16T00:29:30;101274.28;;;4.89;57.24
41947;BME280;27638;42.184;24.848;2023-02-16T00:31:58;101269.44;;;4.97;57.33
41947;BME280;27638;42.184;24.848;2023-02-16T00:34:51;101271.66;;;4.89;57.72
41947;BME280;27638;42.184;24.848;2023-02-16T00:37:16;101262.69;;;4.93;57.58
41947;BME280;27638;42.184;24.848;2023-02-16T00:39:43;101269.75;;;5.07;57.62
41947;BME280;27638;42.184;24.848;2023-02-16T00:42:22;101267.22;;;5.05;57.49
41947;BME280;27638;42.184;24.848;2023-02-16T00:44:54;101273.59;;;5.01;57.32
41947;BME280;27638;42.184;24.848;2023-02-16T00:47:38;101267.56;;;4.69;58.42
41947;BME280;27638;42.184;24.848;2023-02-16T00:50:20;101268.97;;;4.29;59.52
41947;BME280;27638;42.184;24.848;2023-02-16T00:52:47;101275.13;;;4.60;58.85
41947;BME280;27638;42.184;24.848;2023-02-16T00:55:19;101268.75;;;4.64;58.42
41947;BME280;27638;42.184;24.848;2023-02-16T00:58:01;101263.19;;;4.38;59.32
41947;BME280;27638;42.184;24.848;2023-02-16T01:00:36;101263.97;;;4.40;58.41
41947;BME280;27638;42.184;24.848;2023-02-16T01:03:08;101256.34;;;4.20;58.97
41947;BME280;27638;42.184;24.848;2023-02-16T01:05:34;101257.34;;;4.02;59.68
41947;BME280;27638;42.184;24.848;2023-02-16T01:08:00;101261.31;;;4.09;59.46
41947;BME280;27638;42.184;24.848;2023-02-16T01:10:44;101254.53;;;4.05;59.28
41947;BME280;27638;42.184;24.848;2023-02-16T01:13:38;101255.47;;;4.04;59.08
41947;BME280;27638;42.184;24.848;2023-02-16T01:16:11;101248.28;;;3.92;59.43
41947;BME280;27638;42.184;24.848;2023-02-16T01:18:36;101240.72;;;3.70;60.45
41947;BME280;27638;42.184;24.848;2023-02-16T01:21:02;101251.63;;;3.78;59.93
41947;BME280;27638;42.184;24.848;2023-02-16T01:23:27;101260.63;;;3.90;59.06
41947;BME280;27638;42.184;24.848;2023-02-16T01:25:53;101258.72;;;3.76;59.37
41947;BME280;27638;42.184;24.848;2023-02-16T01:28:22;101247.81;;;3.68;59.17
41947;BME280;27638;42.184;24.848;2023-02-16T01:30:48;101258.59;;;3.95;58.93
41947;BME280;27638;42.184;24.848;2023-02-16T01:33:14;101256.81;;;4.11;58.39
41947;BME280;27638;42.184;24.848;2023-02-16T01:35:40;101262.75;;;3.99;58.25
41947;BME280;27638;42.184;24.848;2023-02-16T01:38:06;101261.13;;;3.96;58.44
41947;BME280;27638;42.184;24.848;2023-02-16T01:43:23;101257.91;;;3.91;58.49
41947;BME280;27638;42.184;24.848;2023-02-16T01:46:16;101262.53;;;4.19;57.32
41947;BME280;27638;42.184;24.848;2023-02-16T01:48:39;101262.03;;;4.28;56.26
41947;BME280;27638;42.184;24.848;2023-02-16T01:51:19;101260.25;;;4.29;56.08
41947;BME280;27638;42.184;24.848;2023-02-16T01:59:03;101261.50;;;4.37;55.50
41947;BME280;27638;42.184;24.848;2023-02-16T02:01:40;101261.00;;;4.31;55.70
41947;BME280;27638;42.184;24.848;2023-02-16T02:04:11;101266.84;;;4.36;55.13
41947;BME280;27638;42.184;24.848;2023-02-16T02:06:57;101262.19;;;4.41;55.25
41947;BME280;27638;42.184;24.848;2023-02-16T02:09:35;101256.25;;;4.37;55.06
41947;BME280;27638;42.184;24.848;2023-02-16T02:12:15;101252.63;;;4.40;54.52
41947;BME280;27638;42.184;24.848;2023-02-16T02:14:44;101249.50;;;4.33;54.90
41947;BME280;27638;42.184;24.848;2023-02-16T02:17:15;101251.44;;;4.30;54.83
41947;BME280;27638;42.184;24.848;2023-02-16T02:20:12;101244.16;;;4.03;56.04
41947;BME280;27638;42.184;24.848;2023-02-16T02:23:10;101244.19;;;3.70;57.20
41947;BME280;27638;42.184;24.848;2023-02-16T02:44:32;101259.59;;;3.76;57.23
41947;BME280;27638;42.184;24.848;2023-02-16T02:47:02;101254.63;;;3.88;56.14
41947;BME280;27638;42.184;24.848;2023-02-16T02:49:27;101257.50;;;3.99;55.81
41947;BME280;27638;42.184;24.848;2023-02-16T02:51:52;101265.19;;;4.02;56.13
41947;BME280;27638;42.184;24.848;2023-02-16T02:54:24;101257.75;;;4.10;55.95
41947;BME280;27638;42.184;24.848;2023-02-16T03:03:09;101262.16;;;4.09;56.88
41947;BME280;27638;42.184;24.848;2023-02-16T03:05:37;101271.63;;;4.12;57.25
41947;BME280;27638;42.184;24.848;2023-02-16T03:08:09;101270.31;;;4.21;56.76
41947;BME280;27638;42.184;24.848;2023-02-16T03:10:42;101270.13;;;4.24;56.22
41947;BME280;27638;42.184;24.848;2023-02-16T03:13:36;101265.91;;;4.21;56.33
41947;BME280;27638;42.184;24.848;2023-02-16T03:16:24;101263.59;;;3.99;57.20
41947;BME280;27638;42.184;24.848;2023-02-16T03:18:51;101260.44;;;3.93;57.54
41947;BME280;27638;42.184;24.848;2023-02-16T03:21:35;101264.59;;;3.97;57.57
41947;BME280;27638;42.184;24.848;2023-02-16T03:24:27;101274.03;;;3.83;57.95
41947;BME280;27638;42.184;24.848;2023-02-16T03:27:14;101258.94;;;3.89;57.74
41947;BME280;27638;42.184;24.848;2023-02-16T03:30:01;101257.81;;;3.93;57.50
41947;BME280;27638;42.184;24.848;2023-02-16T03:32:29;101249.28;;;3.89;58.19
41947;BME280;27638;42.184;24.848;2023-02-16T03:34:54;101261.03;;;3.98;57.89
41947;BME280;27638;42.184;24.848;2023-02-16T03:37:20;101255.19;;;3.77;58.05
41947;BME280;27638;42.184;24.848;2023-02-16T03:39:45;101253.31;;;3.63;58.65
41947;BME280;27638;42.184;24.848;2023-02-16T03:42:29;101258.00;;;3.57;59.31
41947;BME280;27638;42.184;24.848;2023-02-16T03:44:55;101261.16;;;3.63;58.81
41947;BME280;27638;42.184;24.848;2023-02-16T03:47:20;101255.75;;;3.33;60.10
41947;BME280;27638;42.184;24.848;2023-02-16T03:49:45;101251.84;;;3.25;60.51
41947;BME280;27638;42.184;24.848;2023-02-16T03:52:11;101254.03;;;2.98;61.49
41947;BME280;27638;42.184;24.848;2023-02-16T03:54:36;101254.59;;;2.87;61.65
41947;BME280;27638;42.184;24.848;2023-02-16T03:57:02;101250.03;;;2.73;62.55
41947;BME280;27638;42.184;24.848;2023-02-16T03:59:27;101254.66;;;2.85;62.19
41947;BME280;27638;42.184;24.848;2023-02-16T04:01:53;101245.72;;;2.89;61.95
41947;BME280;27638;42.184;24.848;2023-02-16T04:04:19;101255.09;;;2.59;62.63
41947;BME280;27638;42.184;24.848;2023-02-16T04:06:44;101251.03;;;2.71;62.68
41947;BME280;27638;42.184;24.848;2023-02-16T04:09:10;101246.13;;;2.82;61.98
41947;BME280;27638;42.184;24.848;2023-02-16T04:11:35;101253.19;;;2.80;62.11
41947;BME280;27638;42.184;24.848;2023-02-16T04:14:19;101253.28;;;2.96;61.50
41947;BME280;27638;42.184;24.848;2023-02-16T04:16:45;101251.34;;;2.82;61.83
41947;BME280;27638;42.184;24.848;2023-02-16T04:19:10;101255.00;;;2.61;62.23
41947;BME280;27638;42.184;24.848;2023-02-16T04:21:36;101253.16;;;2.63;61.97
41947;BME280;27638;42.184;24.848;2023-02-16T04:24:01;101256.50;;;2.83;61.82
41947;BME280;27638;42.184;24.848;2023-02-16T04:26:30;101256.44;;;3.02;60.68
41947;BME280;27638;42.184;24.848;2023-02-16T04:28:55;101242.19;;;3.08;60.89
41947;BME280;27638;42.184;24.848;2023-02-16T04:31:21;101249.69;;;3.15;60.39
41947;BME280;27638;42.184;24.848;2023-02-16T04:33:46;101252.13;;;3.36;59.91
41947;BME280;27638;42.184;24.848;2023-02-16T04:36:12;101258.94;;;3.56;59.13
41947;BME280;27638;42.184;24.848;2023-02-16T04:38:37;101258.22;;;3.69;58.45
41947;BME280;27638;42.184;24.848;2023-02-16T04:41:02;101258.66;;;3.77;57.51
41947;BME280;27638;42.184;24.848;2023-02-16T04:43:28;101260.34;;;3.78;57.10
41947;BME280;27638;42.184;24.848;2023-02-16T04:45:53;101260.25;;;3.80;57.24
41947;BME280;27638;42.184;24.848;2023-02-16T04:48:19;101262.63;;;3.84;56.71
41947;BME280;27638;42.184;24.848;2023-02-16T04:50:44;101263.31;;;3.88;56.50
41947;BME280;27638;42.184;24.848;2023-02-16T04:53:09;101265.59;;;3.94;56.45
41947;BME280;27638;42.184;24.848;2023-02-16T04:55:35;101269.69;;;4.00;56.19
41947;BME280;27638;42.184;24.848;2023-02-16T04:58:00;101263.59;;;3.99;55.53
41947;BME280;27638;42.184;24.848;2023-02-16T05:00:26;101269.50;;;4.03;55.05
41947;BME280;27638;42.184;24.848;2023-02-16T05:02:51;101268.31;;;3.93;54.78
41947;BME280;27638;42.184;24.848;2023-02-16T05:05:17;101269.41;;;3.89;54.98
41947;BME280;27638;42.184;24.848;2023-02-16T05:07:42;101274.56;;;3.90;55.69
41947;BME280;27638;42.184;24.848;2023-02-16T05:10:08;101278.53;;;3.48;56.37
41947;BME280;27638;42.184;24.848;2023-02-16T05:12:34;101281.69;;;3.38;56.79
41947;BME280;27638;42.184;24.848;2023-02-16T05:15:18;101287.31;;;3.47;55.55
41947;BME280;27638;42.184;24.848;2023-02-16T05:17:44;101284.69;;;3.47;55.16
41947;BME280;27638;42.184;24.848;2023-02-16T05:20:10;101280.53;;;3.43;55.59
41947;BME280;27638;42.184;24.848;2023-02-16T05:22:35;101280.44;;;3.45;55.57
41947;BME280;27638;42.184;24.848;2023-02-16T05:25:06;101281.06;;;3.50;55.18
41947;BME280;27638;42.184;24.848;2023-02-16T05:27:32;101278.91;;;3.41;55.86
41947;BME280;27638;42.184;24.848;2023-02-16T05:29:57;101300.34;;;3.32;56.63
41947;BME280;27638;42.184;24.848;2023-02-16T05:32:23;101294.00;;;3.36;56.82
41947;BME280;27638;42.184;24.848;2023-02-16T05:34:49;101297.00;;;3.45;56.27
41947;BME280;27638;42.184;24.848;2023-02-16T05:37:16;101300.41;;;3.47;56.34
41947;BME280;27638;42.184;24.848;2023-02-16T05:39:42;101309.56;;;3.56;55.53
41947;BME280;27638;42.184;24.848;2023-02-16T05:42:08;101301.44;;;3.61;55.62
41947;BME280;27638;42.184;24.848;2023-02-16T05:44:33;101310.00;;;3.64;55.50
41947;BME280;27638;42.184;24.848;2023-02-16T05:46:59;101310.56;;;3.53;55.37
41947;BME280;27638;42.184;24.848;2023-02-16T05:49:24;101303.00;;;3.47;56.06
41947;BME280;27638;42.184;24.848;2023-02-16T05:51:50;101312.72;;;3.45;56.13
41947;BME280;27638;42.184;24.848;2023-02-16T05:54:15;101312.72;;;3.28;57.09
41947;BME280;27638;42.184;24.848;2023-02-16T05:56:46;101307.72;;;3.41;57.78
41947;BME280;27638;42.184;24.848;2023-02-16T05:59:13;101311.56;;;3.51;57.62
41947;BME280;27638;42.184;24.848;2023-02-16T06:01:39;101324.34;;;3.57;57.55
41947;BME280;27638;42.184;24.848;2023-02-16T06:04:09;101324.09;;;3.62;56.99
41947;BME280;27638;42.184;24.848;2023-02-16T06:06:36;101316.03;;;3.49;57.21
41947;BME280;27638;42.184;24.848;2023-02-16T06:09:04;101318.50;;;3.52;57.53
41947;BME280;27638;42.184;24.848;2023-02-16T06:11:29;101314.56;;;3.61;57.77
41947;BME280;27638;42.184;24.848;2023-02-16T06:14:13;101323.31;;;3.77;57.78
41947;BME280;27638;42.184;24.848;2023-02-16T06:16:41;101329.06;;;3.83;58.07
41947;BME280;27638;42.184;24.848;2023-02-16T06:19:07;101331.13;;;3.94;57.90
41947;BME280;27638;42.184;24.848;2023-02-16T06:21:35;101331.47;;;4.04;58.28
41947;BME280;27638;42.184;24.848;2023-02-16T06:24:01;101331.91;;;4.12;58.87
41947;BME280;27638;42.184;24.848;2023-02-16T06:26:26;101334.88;;;4.06;59.47
41947;BME280;27638;42.184;24.848;2023-02-16T06:28:53;101340.72;;;4.11;59.87
41947;BME280;27638;42.184;24.848;2023-02-16T06:31:19;101344.72;;;3.85;61.30
41947;BME280;27638;42.184;24.848;2023-02-16T06:33:44;101340.16;;;3.89;61.84
41947;BME280;27638;42.184;24.848;2023-02-16T06:36:10;101342.66;;;4.07;61.54
41947;BME280;27638;42.184;24.848;2023-02-16T06:38:35;101345.41;;;3.89;62.00
41947;BME280;27638;42.184;24.848;2023-02-16T06:41:01;101347.25;;;3.87;62.54
41947;BME280;27638;42.184;24.848;2023-02-16T06:43:26;101345.84;;;3.46;63.31
41947;BME280;27638;42.184;24.848;2023-02-16T06:45:52;101347.75;;;3.26;65.48
41947;BME280;27638;42.184;24.848;2023-02-16T06:48:17;101340.28;;;3.70;64.87
41947;BME280;27638;42.184;24.848;2023-02-16T06:50:43;101340.81;;;3.76;64.14
41947;BME280;27638;42.184;24.848;2023-02-16T06:53:08;101348.13;;;4.20;63.04
41947;BME280;27638;42.184;24.848;2023-02-16T06:55:34;101349.34;;;4.62;61.77
41947;BME280;27638;42.184;24.848;2023-02-16T06:58:02;101348.38;;;4.94;61.23
41947;BME280;27638;42.184;24.848;2023-02-16T07:00:27;101350.22;;;5.24;59.90
41947;BME280;27638;42.184;24.848;2023-02-16T07:02:54;101356.16;;;5.41;60.17
41947;BME280;27638;42.184;24.848;2023-02-16T07:05:19;101354.25;;;5.59;59.71
41947;BME280;27638;42.184;24.848;2023-02-16T07:07:45;101355.19;;;5.72;58.96
41947;BME280;27638;42.184;24.848;2023-02-16T07:10:10;101358.25;;;5.95;57.81
41947;BME280;27638;42.184;24.848;2023-02-16T07:12:36;101352.91;;;6.11;57.93
41947;BME280;27638;42.184;24.848;2023-02-16T07:15:02;101350.97;;;6.28;57.21
41947;BME280;27638;42.184;24.848;2023-02-16T07:17:28;101347.66;;;6.25;56.80
41947;BME280;27638;42.184;24.848;2023-02-16T07:19:53;101354.81;;;6.37;56.63
41947;BME280;27638;42.184;24.848;2023-02-16T07:22:19;101356.66;;;6.49;56.85
41947;BME280;27638;42.184;24.848;2023-02-16T07:24:44;101363.78;;;6.61;55.47
41947;BME280;27638;42.184;24.848;2023-02-16T07:27:10;101357.69;;;6.61;55.80
41947;BME280;27638;42.184;24.848;2023-02-16T07:29:35;101359.16;;;6.65;56.74
41947;BME280;27638;42.184;24.848;2023-02-16T07:32:02;101353.38;;;6.46;56.54
41947;BME280;27638;42.184;24.848;2023-02-16T07:34:28;101356.63;;;6.63;56.44
41947;BME280;27638;42.184;24.848;2023-02-16T07:36:53;101352.63;;;6.44;57.16
41947;BME280;27638;42.184;24.848;2023-02-16T07:39:19;101362.66;;;6.65;56.56
41947;BME280;27638;42.184;24.848;2023-02-16T07:41:44;101362.06;;;6.75;55.63
41947;BME280;27638;42.184;24.848;2023-02-16T07:44:10;101359.03;;;6.81;56.10
41947;BME280;27638;42.184;24.848;2023-02-16T07:46:35;101358.63;;;6.46;57.34
41947;BME280;27638;42.184;24.848;2023-02-16T07:49:01;101360.00;;;6.65;56.84
41947;BME280;27638;42.184;24.848;2023-02-16T07:51:28;101360.09;;;6.64;57.87
41947;BME280;27638;42.184;24.848;2023-02-16T07:53:55;101349.16;;;6.15;58.45
41947;BME280;27638;42.184;24.848;2023-02-16T07:56:30;101350.56;;;6.06;58.70
41947;BME280;27638;42.184;24.848;2023-02-16T07:58:58;101344.75;;;6.01;59.35
41947;BME280;27638;42.184;24.848;2023-02-16T08:01:25;101354.22;;;6.46;58.51
41947;BME280;27638;42.184;24.848;2023-02-16T08:03:51;101357.44;;;6.37;58.14
41947;BME280;27638;42.184;24.848;2023-02-16T08:06:17;101354.00;;;6.63;56.71
41947;BME280;27638;42.184;24.848;2023-02-16T08:08:43;101357.50;;;6.91;56.25
41947;BME280;27638;42.184;24.848;2023-02-16T08:11:18;101356.88;;;7.27;55.13
41947;BME280;27638;42.184;24.848;2023-02-16T08:13:44;101354.25;;;7.27;54.67
41947;BME280;27638;42.184;24.848;2023-02-16T08:16:13;101354.53;;;7.22;54.96
41947;BME280;27638;42.184;24.848;2023-02-16T08:18:39;101355.00;;;7.02;57.10
41947;BME280;27638;42.184;24.848;2023-02-16T08:21:14;101357.53;;;7.03;56.97
41947;BME280;27638;42.184;24.848;2023-02-16T08:23:48;101354.16;;;7.28;56.16
41947;BME280;27638;42.184;24.848;2023-02-16T08:26:17;101361.03;;;7.04;56.24
41947;BME280;27638;42.184;24.848;2023-02-16T08:28:45;101354.16;;;7.28;55.75
41947;BME280;27638;42.184;24.848;2023-02-16T08:31:19;101350.06;;;7.37;55.55
41947;BME280;27638;42.184;24.848;2023-02-16T08:33:46;101349.16;;;7.51;54.25
41947;BME280;27638;42.184;24.848;2023-02-16T08:36:20;101345.69;;;7.63;54.47
41947;BME280;27638;42.184;24.848;2023-02-16T08:38:48;101346.84;;;7.72;53.74
41947;BME280;27638;42.184;24.848;2023-02-16T08:41:18;101349.59;;;7.57;54.96
41947;BME280;27638;42.184;24.848;2023-02-16T08:43:43;101342.94;;;7.77;54.12
41947;BME280;27638;42.184;24.848;2023-02-16T08:46:10;101342.53;;;7.83;54.29
41947;BME280;27638;42.184;24.848;2023-02-16T08:48:35;101342.84;;;8.04;52.97
41947;BME280;27638;42.184;24.848;2023-02-16T08:51:01;101342.19;;;8.13;52.79
41947;BME280;27638;42.184;24.848;2023-02-16T08:53:27;101337.03;;;7.99;53.04
41947;BME280;27638;42.184;24.848;2023-02-16T08:55:58;101339.97;;;8.32;52.76
41947;BME280;27638;42.184;24.848;2023-02-16T08:58:24;101334.59;;;8.47;52.34
41947;BME280;27638;42.184;24.848;2023-02-16T09:00:51;101329.94;;;8.50;52.50
41947;BME280;27638;42.184;24.848;2023-02-16T09:03:17;101333.34;;;8.76;51.92
41947;BME280;27638;42.184;24.848;2023-02-16T09:05:47;101326.13;;;9.02;51.29
41947;BME280;27638;42.184;24.848;2023-02-16T09:08:13;101324.75;;;9.20;50.41
41947;BME280;27638;42.184;24.848;2023-02-16T09:10:39;101325.66;;;9.32;50.29
41947;BME280;27638;42.184;24.848;2023-02-16T09:13:05;101327.75;;;9.40;50.24
41947;BME280;27638;42.184;24.848;2023-02-16T09:15:31;101329.34;;;9.53;49.95
41947;BME280;27638;42.184;24.848;2023-02-16T09:17:57;101318.19;;;9.61;49.62
41947;BME280;27638;42.184;24.848;2023-02-16T09:20:23;101322.41;;;9.75;49.02
41947;BME280;27638;42.184;24.848;2023-02-16T09:22:48;101323.84;;;9.68;47.61
41947;BME280;27638;42.184;24.848;2023-02-16T09:25:14;101315.31;;;9.75;47.91
41947;BME280;27638;42.184;24.848;2023-02-16T09:27:40;101312.69;;;9.86;47.88
41947;BME280;27638;42.184;24.848;2023-02-16T09:30:07;101317.25;;;9.84;48.43
41947;BME280;27638;42.184;24.848;2023-02-16T09:32:34;101311.47;;;9.79;48.03
41947;BME280;27638;42.184;24.848;2023-02-16T09:35:01;101307.00;;;9.69;48.15
41947;BME280;27638;42.184;24.848;2023-02-16T09:37:26;101309.78;;;9.67;48.61
41947;BME280;27638;42.184;24.848;2023-02-16T09:39:51;101308.22;;;9.76;48.16
41947;BME280;27638;42.184;24.848;2023-02-16T09:45:22;101296.31;;;9.92;47.44
41947;BME280;27638;42.184;24.848;2023-02-16T09:47:50;101302.81;;;10.00;47.58
41947;BME280;27638;42.184;24.848;2023-02-16T09:50:25;101295.34;;;10.05;47.45
41947;BME280;27638;42.184;24.848;2023-02-16T09:55:26;101284.28;;;10.00;47.41
41947;BME280;27638;42.184;24.848;2023-02-16T10:00:42;101287.66;;;10.02;47.58
41947;BME280;27638;42.184;24.848;2023-02-16T10:03:39;101285.13;;;9.78;47.69
41947;BME280;27638;42.184;24.848;2023-02-16T10:09:14;101272.88;;;9.66;49.13
41947;BME280;27638;42.184;24.848;2023-02-16T10:11:48;101270.59;;;9.72;49.04
41947;BME280;27638;42.184;24.848;2023-02-16T10:17:03;101266.13;;;9.50;49.29
41947;BME280;27638;42.184;24.848;2023-02-16T10:19:45;101261.78;;;9.38;49.17
41947;BME280;27638;42.184;24.848;2023-02-16T10:22:25;101263.63;;;9.25;49.99
41947;BME280;27638;42.184;24.848;2023-02-16T10:24:59;101256.81;;;9.34;49.95
41947;BME280;27638;42.184;24.848;2023-02-16T10:27:28;101255.06;;;9.10;50.13
41947;BME280;27638;42.184;24.848;2023-02-16T10:29:58;101245.50;;;9.32;49.83
41947;BME280;27638;42.184;24.848;2023-02-16T10:32:27;101251.22;;;9.49;49.09
41947;BME280;27638;42.184;24.848;2023-02-16T10:35:11;101246.16;;;9.46;49.40
41947;BME280;27638;42.184;24.848;2023-02-16T10:38:03;101243.16;;;9.40;49.64
41947;BME280;27638;42.184;24.848;2023-02-16T10:40:42;101241.94;;;9.44;49.95
41947;BME280;27638;42.184;24.848;2023-02-16T10:45:56;101235.56;;;9.46;49.56
41947;BME280;27638;42.184;24.848;2023-02-16T10:48:25;101236.78;;;9.53;50.25
41947;BME280;27638;42.184;24.848;2023-02-16T10:53:33;101231.03;;;9.59;48.80
41947;BME280;27638;42.184;24.848;2023-02-16T10:55:59;101224.78;;;9.72;48.65
41947;BME280;27638;42.184;24.848;2023-02-16T10:58:32;101220.94;;;9.65;49.66
41947;BME280;27638;42.184;24.848;2023-02-16T11:01:15;101217.19;;;9.78;49.10
41947;BME280;27638;42.184;24.848;2023-02-16T11:03:50;101219.38;;;9.62;49.66
41947;BME280;27638;42.184;24.848;2023-02-16T11:06:22;101207.09;;;9.72;48.65
41947;BME280;27638;42.184;24.848;2023-02-16T11:08:55;101210.72;;;9.71;48.75
41947;BME280;27638;42.184;24.848;2023-02-16T11:11:26;101196.38;;;9.85;48.10
41947;BME280;27638;42.184;24.848;2023-02-16T11:14:01;101199.03;;;9.96;47.49
41947;BME280;27638;42.184;24.848;2023-02-16T11:16:29;101196.72;;;10.03;47.54
41947;BME280;27638;42.184;24.848;2023-02-16T11:21:46;101188.16;;;10.10;47.22
41947;BME280;27638;42.184;24.848;2023-02-16T11:24:23;101173.47;;;10.17;46.39
41947;BME280;27638;42.184;24.848;2023-02-16T11:29:38;101169.25;;;10.15;46.45
41947;BME280;27638;42.184;24.848;2023-02-16T11:32:09;101173.97;;;10.22;46.17
41947;BME280;27638;42.184;24.848;2023-02-16T11:34:36;101166.84;;;10.34;45.51
41947;BME280;27638;42.184;24.848;2023-02-16T11:37:14;101158.22;;;10.21;44.85
41947;BME280;27638;42.184;24.848;2023-02-16T11:39:54;101160.22;;;10.17;45.54
41947;BME280;27638;42.184;24.848;2023-02-16T11:42:42;101156.41;;;10.21;46.58
41947;BME280;27638;42.184;24.848;2023-02-16T11:45:30;101151.38;;;10.07;45.16
41947;BME280;27638;42.184;24.848;2023-02-16T11:48:09;101148.59;;;10.09;45.51
41947;BME280;27638;42.184;24.848;2023-02-16T11:50:38;101147.53;;;10.00;45.80
41947;BME280;27638;42.184;24.848;2023-02-16T11:55:48;101141.22;;;10.23;45.34
41947;BME280;27638;42.184;24.848;2023-02-16T11:58:23;101137.44;;;10.37;45.85
41947;BME280;27638;42.184;24.848;2023-02-16T12:04:03;101125.91;;;10.38;44.22
41947;BME280;27638;42.184;24.848;2023-02-16T12:09:52;101125.44;;;10.65;43.92
41947;BME280;27638;42.184;24.848;2023-02-16T12:15:40;101110.50;;;10.64;43.82
41947;BME280;27638;42.184;24.848;2023-02-16T12:18:41;101109.53;;;10.65;43.96
41947;BME280;27638;42.184;24.848;2023-02-16T12:21:33;101105.53;;;10.71;43.92
41947;BME280;27638;42.184;24.848;2023-02-16T12:26:52;101096.22;;;10.76;44.01
41947;BME280;27638;42.184;24.848;2023-02-16T12:43:51;101074.06;;;11.08;42.40
41947;BME280;27638;42.184;24.848;2023-02-16T12:46:39;101073.44;;;10.95;41.79
41947;BME280;27638;42.184;24.848;2023-02-16T12:49:25;101064.31;;;11.08;42.49
41947;BME280;27638;42.184;24.848;2023-02-16T12:52:00;101055.81;;;10.84;42.18
41947;BME280;27638;42.184;24.848;2023-02-16T12:54:39;101056.56;;;10.96;42.17
41947;BME280;27638;42.184;24.848;2023-02-16T12:57:13;101058.53;;;10.94;42.73
41947;BME280;27638;42.184;24.848;2023-02-16T13:02:27;101047.34;;;10.90;42.38
41947;BME280;27638;42.184;24.848;2023-02-16T13:05:03;101043.47;;;10.94;42.53
41947;BME280;27638;42.184;24.848;2023-02-16T13:07:44;101041.91;;;10.92;41.95
41947;BME280;27638;42.184;24.848;2023-02-16T13:10:23;101033.44;;;10.98;42.66
41947;BME280;27638;42.184;24.848;2023-02-16T13:13:03;101025.06;;;11.02;41.46
41947;BME280;27638;42.184;24.848;2023-02-16T13:15:37;101034.50;;;10.85;41.97
41947;BME280;27638;42.184;24.848;2023-02-16T13:18:10;101022.13;;;10.96;42.10
41947;BME280;27638;42.184;24.848;2023-02-16T13:20:41;101018.81;;;11.03;42.36
41947;BME280;27638;42.184;24.848;2023-02-16T13:23:42;101023.97;;;11.05;42.24
41947;BME280;27638;42.184;24.848;2023-02-16T13:26:16;101020.50;;;11.14;42.44
41947;BME280;27638;42.184;24.848;2023-02-16T13:37:26;100997.66;;;11.23;41.91
41947;BME280;27638;42.184;24.848;2023-02-16T13:45:28;100994.72;;;11.16;41.83
41947;BME280;27638;42.184;24.848;2023-02-16T13:47:55;100994.16;;;11.22;41.43
41947;BME280;27638;42.184;24.848;2023-02-16T13:52:48;100996.25;;;11.18;41.98
41947;BME280;27638;42.184;24.848;2023-02-16T13:55:32;100999.75;;;11.19;41.62
41947;BME280;27638;42.184;24.848;2023-02-16T14:00:37;100999.31;;;11.14;41.32
41947;BME280;27638;42.184;24.848;2023-02-16T14:03:35;100992.63;;;11.19;41.70
41947;BME280;27638;42.184;24.848;2023-02-16T14:14:26;100972.28;;;11.30;41.67
41947;BME280;27638;42.184;24.848;2023-02-16T14:16:51;100972.97;;;11.32;41.18
41947;BME280;27638;42.184;24.848;2023-02-16T14:19:22;100969.91;;;11.27;40.96
41947;BME280;27638;42.184;24.848;2023-02-16T14:21:50;100968.66;;;11.40;40.96
41947;BME280;27638;42.184;24.848;2023-02-16T14:26:54;100968.56;;;11.51;40.73
41947;BME280;27638;42.184;24.848;2023-02-16T14:29:23;100966.75;;;11.52;40.09
41947;BME280;27638;42.184;24.848;2023-02-16T14:32:47;100971.03;;;11.43;40.19
41947;BME280;27638;42.184;24.848;2023-02-16T14:35:14;100964.34;;;11.39;40.23
41947;BME280;27638;42.184;24.848;2023-02-16T14:37:53;100967.00;;;11.39;40.28
41947;BME280;27638;42.184;24.848;2023-02-16T14:40:29;100963.81;;;11.45;40.19
41947;BME280;27638;42.184;24.848;2023-02-16T14:43:09;100953.06;;;11.47;
41947;BME280;27638;42.184;24.848;2023-02-16T14:51:24;100956.25;;;11.41;41.14
41947;BME280;27638;42.184;24.848;2023-02-16T15:02:37;100944.09;;;11.29;40.53
41947;BME280;27638;42.184;24.848;2023-02-16T15:05:24;100943.25;;;11.28;40.22
41947;BME280;27638;42.184;24.848;2023-02-16T15:08:20;100945.59;;;11.22;40.63
41947;BME280;27638;42.184;24.848;2023-02-16T15:10:47;100948.41;;;11.39;39.97
41947;BME280;27638;42.184;24.848;2023-02-16T15:13:29;100949.09;;;11.22;41.23
41947;BME280;27638;42.184;24.848;2023-02-16T15:15:56;100949.09;;;11.22;41.88
41947;BME280;27638;42.184;24.848;2023-02-16T15:18:30;100950.31;;;11.08;43.20
41947;BME280;27638;42.184;24.848;2023-02-16T15:20:56;100945.81;;;10.90;43.72
41947;BME280;27638;42.184;24.848;2023-02-16T15:23:28;100951.78;;;10.82;44.01